createdAt,value
2023-02-19T00:01:01.026Z,95442.47
2023-02-19T00:03:27.487Z,95439.72
2023-02-19T00:05:53.934Z,95444.41
2023-02-19T00:08:20.330Z,95448.38
2023-02-19T00:10:46.736Z,95452.06
2023-02-19T00:13:13.144Z,95445.84
2023-02-19T00:15:39.619Z,95446.97
2023-02-19T00:18:06.032Z,95445.34
2023-02-19T00:20:32.422Z,95441.81
2023-02-19T00:22:58.802Z,95436.44
2023-02-19T00:25:25.215Z,95427.75
2023-02-19T00:27:51.595Z,95433.66
2023-02-19T00:30:18.052Z,95425.69
2023-02-19T00:32:44.482Z,95423.81
2023-02-19T00:35:11.078Z,95431.19
2023-02-19T00:37:37.496Z,95435.59
2023-02-19T00:40:03.902Z,95438.94
2023-02-19T00:42:30.295Z,95435.03
2023-02-19T00:44:56.690Z,95439.84
2023-02-19T00:47:23.116Z,95426.97
2023-02-19T00:49:49.531Z,95437.00
2023-02-19T00:52:16.028Z,95430.69
2023-02-19T00:54:42.428Z,95432.25
2023-02-19T00:57:08.809Z,95431.47
2023-02-19T00:59:35.210Z,95430.13
2023-02-19T01:02:01.597Z,95427.03
2023-02-19T01:04:28.038Z,95417.75
2023-02-19T01:06:54.786Z,95414.19
2023-02-19T01:09:21.184Z,95423.84
2023-02-19T01:11:47.574Z,95423.19
2023-02-19T01:14:14.016Z,95411.44
2023-02-19T01:16:40.407Z,95413.22
2023-02-19T01:19:06.834Z,95404.09
2023-02-19T01:21:33.244Z,95404.91
2023-02-19T01:23:59.636Z,95405.88
2023-02-19T01:26:26.108Z,95407.00
2023-02-19T01:28:52.494Z,95397.97
2023-02-19T01:31:18.957Z,95401.31
2023-02-19T01:33:45.441Z,95397.59
2023-02-19T01:36:11.861Z,95399.84
2023-02-19T01:38:38.247Z,95406.06
2023-02-19T01:41:04.649Z,95399.25
2023-02-19T01:43:31.331Z,95390.72
2023-02-19T01:45:57.723Z,95396.56
2023-02-19T01:48:24.138Z,95389.75
2023-02-19T01:50:50.562Z,95388.94
2023-02-19T01:53:16.956Z,95377.59
2023-02-19T01:55:43.352Z,95379.56
2023-02-19T01:58:09.869Z,95374.06
2023-02-19T02:00:36.304Z,95365.31
2023-02-19T02:03:02.755Z,95368.09
2023-02-19T02:05:29.280Z,95368.41
2023-02-19T02:07:55.694Z,95367.44
2023-02-19T02:10:22.088Z,95376.00
2023-02-19T02:12:48.484Z,95379.91
2023-02-19T02:15:14.896Z,95374.19
2023-02-19T02:17:41.311Z,95375.59
2023-02-19T02:20:07.769Z,95378.75
2023-02-19T02:22:34.184Z,95377.53
2023-02-19T02:25:00.579Z,95383.31
2023-02-19T02:27:26.985Z,95366.78
2023-02-19T02:29:53.499Z,95367.75
2023-02-19T02:32:20.047Z,95364.28
2023-02-19T02:34:46.543Z,95361.38
2023-02-19T02:37:12.964Z,95365.25
2023-02-19T02:39:39.371Z,95374.97
2023-02-19T02:42:05.780Z,95368.44
2023-02-19T02:44:32.179Z,95376.81
2023-02-19T02:46:58.639Z,95367.75
2023-02-19T02:49:25.165Z,95355.84
2023-02-19T02:51:51.547Z,95360.72
2023-02-19T02:54:17.926Z,95362.53
2023-02-19T02:56:44.331Z,95350.72
2023-02-19T02:59:10.730Z,95351.25
2023-02-19T03:01:37.160Z,95354.06
2023-02-19T03:04:03.591Z,95351.66
2023-02-19T03:06:30.010Z,95339.19
2023-02-19T03:08:56.442Z,95347.69
2023-02-19T03:11:22.890Z,95334.66
2023-02-19T03:13:49.293Z,95342.88
2023-02-19T03:16:15.755Z,95344.66
2023-02-19T03:18:42.190Z,95326.34
2023-02-19T03:21:08.997Z,95330.22
2023-02-19T03:23:35.543Z,95329.22
2023-02-19T03:26:01.954Z,95331.50
2023-02-19T03:28:28.364Z,95331.19
2023-02-19T03:30:54.774Z,95344.66
2023-02-19T03:33:21.186Z,95356.56
2023-02-19T03:35:47.593Z,95364.06
2023-02-19T03:38:14.000Z,95382.50
2023-02-19T03:40:40.399Z,95374.88
2023-02-19T03:43:06.826Z,95379.59
2023-02-19T03:45:33.267Z,95358.81
2023-02-19T03:48:02.445Z,95353.25
2023-02-19T03:50:28.856Z,95357.78
2023-02-19T03:52:55.494Z,95358.91
2023-02-19T03:55:22.926Z,95364.88
2023-02-19T03:57:49.322Z,95382.84
2023-02-19T04:00:16.982Z,95382.03
2023-02-19T04:02:43.846Z,95376.25
2023-02-19T04:05:10.971Z,95363.22
2023-02-19T04:07:39.190Z,95385.69
2023-02-19T04:10:05.580Z,95381.13
2023-02-19T04:12:32.571Z,95385.78
2023-02-19T04:14:59.003Z,95389.41
2023-02-19T04:17:25.434Z,95384.00
2023-02-19T04:19:51.853Z,95393.53
2023-02-19T04:22:18.302Z,95391.13
2023-02-19T04:24:44.665Z,95391.81
2023-02-19T04:27:11.077Z,95390.25
2023-02-19T04:29:39.529Z,95372.78
2023-02-19T04:32:08.327Z,95359.03
2023-02-19T04:34:34.767Z,95364.53
2023-02-19T04:37:01.177Z,95361.06
2023-02-19T04:39:27.580Z,95379.19
2023-02-19T04:41:53.998Z,95357.72
2023-02-19T04:44:20.377Z,95349.75
2023-02-19T04:46:46.806Z,95356.56
2023-02-19T04:49:13.201Z,95341.72
2023-02-19T04:51:39.604Z,95334.75
2023-02-19T04:54:06.021Z,95336.84
2023-02-19T04:56:32.475Z,95340.03
2023-02-19T04:58:58.897Z,95331.97
2023-02-19T05:01:25.323Z,95330.97
2023-02-19T05:03:51.858Z,95315.84
2023-02-19T05:06:18.255Z,95311.78
2023-02-19T05:08:44.643Z,95313.81
2023-02-19T05:11:11.434Z,95322.84
2023-02-19T05:13:38.040Z,95336.59
2023-02-19T05:16:04.454Z,95339.22
2023-02-19T05:18:30.902Z,95338.38
2023-02-19T05:20:57.293Z,95326.69
2023-02-19T05:23:23.695Z,95328.28
2023-02-19T05:25:50.086Z,95331.06
2023-02-19T05:28:16.496Z,95341.69
2023-02-19T05:30:42.903Z,95349.59
2023-02-19T05:33:09.390Z,95355.03
2023-02-19T05:35:35.800Z,95366.41
2023-02-19T05:38:02.251Z,95355.22
2023-02-19T05:40:28.660Z,95367.09
2023-02-19T05:42:55.074Z,95361.16
2023-02-19T05:45:21.491Z,95363.19
2023-02-19T05:47:47.876Z,95370.22
2023-02-19T05:50:14.292Z,95380.31
2023-02-19T05:52:40.669Z,95379.44
2023-02-19T05:55:07.068Z,95373.41
2023-02-19T05:57:33.479Z,95387.44
2023-02-19T05:59:59.902Z,95368.81
2023-02-19T06:02:26.375Z,95366.84
2023-02-19T06:04:52.886Z,95373.97
2023-02-19T06:07:19.284Z,95396.22
2023-02-19T06:09:45.674Z,95395.06
2023-02-19T06:12:12.109Z,95377.28
2023-02-19T06:14:38.509Z,95395.16
2023-02-19T06:17:05.029Z,95399.22
2023-02-19T06:19:31.419Z,95406.16
2023-02-19T06:21:57.828Z,95390.50
2023-02-19T06:24:24.253Z,95381.97
2023-02-19T06:26:50.638Z,95380.16
2023-02-19T06:29:17.042Z,95384.47
2023-02-19T06:31:43.520Z,95385.13
2023-02-19T06:34:09.964Z,95382.56
2023-02-19T06:36:36.355Z,95394.78
2023-02-19T06:39:02.832Z,95407.97
2023-02-19T06:41:29.230Z,95425.50
2023-02-19T06:43:55.651Z,95422.19
2023-02-19T06:46:22.089Z,95431.97
2023-02-19T06:48:48.563Z,95419.53
2023-02-19T06:51:14.999Z,95428.00
2023-02-19T06:53:41.387Z,95433.88
2023-02-19T06:56:07.991Z,95441.91
2023-02-19T06:58:34.414Z,95438.22
2023-02-19T07:01:00.881Z,95444.72
2023-02-19T07:03:27.343Z,95457.38
2023-02-19T07:05:53.762Z,95456.53
2023-02-19T07:08:20.275Z,95460.28
2023-02-19T07:10:46.688Z,95462.13
2023-02-19T07:13:13.090Z,95465.28
2023-02-19T07:15:39.599Z,95470.44
2023-02-19T07:18:06.049Z,95475.41
2023-02-19T07:20:32.438Z,95477.19
2023-02-19T07:22:58.853Z,95479.44
2023-02-19T07:25:25.250Z,95493.44
2023-02-19T07:27:51.674Z,95496.22
2023-02-19T07:30:18.170Z,95513.44
2023-02-19T07:32:44.618Z,95511.34
2023-02-19T07:35:11.035Z,95507.00
2023-02-19T07:37:37.481Z,95505.97
2023-02-19T07:40:03.923Z,95509.00
2023-02-19T07:42:30.392Z,95513.38
2023-02-19T07:44:58.443Z,95526.94
2023-02-19T07:47:26.669Z,95519.13
2023-02-19T07:49:53.164Z,95523.56
2023-02-19T07:52:19.566Z,95522.53
2023-02-19T07:54:45.964Z,95526.50
2023-02-19T07:57:12.460Z,95532.03
2023-02-19T07:59:38.839Z,95523.34
2023-02-19T08:02:05.226Z,95525.66
2023-02-19T08:04:31.638Z,95534.88
2023-02-19T08:06:58.031Z,95538.72
2023-02-19T08:09:24.518Z,95541.44
2023-02-19T08:11:50.949Z,95536.47
2023-02-19T08:14:17.332Z,95542.88
2023-02-19T08:16:43.783Z,95547.81
2023-02-19T08:19:10.217Z,95550.75
2023-02-19T08:21:36.757Z,95550.28
2023-02-19T08:24:03.159Z,95549.31
2023-02-19T08:26:29.568Z,95555.66
2023-02-19T08:28:56.024Z,95557.78
2023-02-19T08:31:22.477Z,95536.31
2023-02-19T08:33:49.362Z,95546.63
2023-02-19T08:36:15.777Z,95549.13
2023-02-19T08:38:42.204Z,95549.47
2023-02-19T08:41:08.963Z,95550.81
2023-02-19T08:43:35.637Z,95555.84
2023-02-19T08:46:02.110Z,95573.72
2023-02-19T08:48:28.560Z,95562.66
2023-02-19T08:50:54.954Z,95570.41
2023-02-19T08:53:21.340Z,95571.06
2023-02-19T08:55:47.758Z,95555.72
2023-02-19T08:58:14.192Z,95561.00
2023-02-19T09:00:40.605Z,95558.81
2023-02-19T09:03:07.025Z,95561.50
2023-02-19T09:05:33.433Z,95561.88
2023-02-19T09:07:59.838Z,95565.88
2023-02-19T09:10:26.226Z,95567.19
2023-02-19T09:12:52.624Z,95568.72
2023-02-19T09:15:18.992Z,95567.91
2023-02-19T09:17:45.408Z,95565.97
2023-02-19T09:20:11.793Z,95570.31
2023-02-19T09:22:38.182Z,95573.63
2023-02-19T09:25:04.564Z,95573.63
2023-02-19T09:27:30.975Z,95563.03
2023-02-19T09:29:57.362Z,95568.50
2023-02-19T09:32:23.773Z,95566.50
2023-02-19T09:34:50.198Z,95565.34
2023-02-19T09:37:16.594Z,95558.03
2023-02-19T09:39:42.977Z,95558.72
2023-02-19T09:42:09.390Z,95559.88
2023-02-19T09:44:35.775Z,95559.19
2023-02-19T09:47:02.162Z,95568.34
2023-02-19T09:49:28.634Z,95567.34
2023-02-19T09:51:55.066Z,95563.34
2023-02-19T09:54:21.486Z,95564.50
2023-02-19T09:56:47.893Z,95563.84
2023-02-19T09:59:14.339Z,95570.31
2023-02-19T10:01:40.788Z,95554.06
2023-02-19T10:04:07.219Z,95560.53
2023-02-19T10:06:33.660Z,95564.53
2023-02-19T10:09:00.046Z,95558.72
2023-02-19T10:11:26.430Z,95562.06
2023-02-19T10:13:52.806Z,95564.19
2023-02-19T10:16:19.226Z,95568.34
2023-02-19T10:18:45.607Z,95572.50
2023-02-19T10:21:12.229Z,95563.72
2023-02-19T10:23:38.763Z,95568.16
2023-02-19T10:26:05.176Z,95565.19
2023-02-19T10:28:31.578Z,95555.91
2023-02-19T10:30:58.059Z,95546.78
2023-02-19T10:33:24.468Z,95556.50
2023-02-19T10:35:50.859Z,95557.69
2023-02-19T10:38:17.267Z,95563.91
2023-02-19T10:40:43.655Z,95566.69
2023-02-19T10:43:10.028Z,95566.69
2023-02-19T10:45:36.507Z,95570.16
2023-02-19T10:48:02.927Z,95568.31
2023-02-19T10:50:29.325Z,95556.06
2023-02-19T10:52:55.715Z,95566.34
2023-02-19T10:55:22.087Z,95548.94
2023-02-19T10:57:48.486Z,95564.50
2023-02-19T11:00:14.907Z,95555.75
2023-02-19T11:02:41.371Z,95563.88
2023-02-19T11:05:07.743Z,95560.38
2023-02-19T11:07:34.133Z,95547.47
2023-02-19T11:10:00.527Z,95547.13
2023-02-19T11:12:26.916Z,95549.28
2023-02-19T11:14:53.316Z,95543.63
2023-02-19T11:17:19.727Z,95538.16
2023-02-19T11:19:46.214Z,95531.84
2023-02-19T11:22:12.606Z,95534.00
2023-02-19T11:24:39.010Z,95527.06
2023-02-19T11:27:05.390Z,95519.91
2023-02-19T11:29:31.785Z,95522.25
2023-02-19T11:31:58.245Z,95520.91
2023-02-19T11:34:24.700Z,95513.91
2023-02-19T11:36:51.124Z,95523.56
2023-02-19T11:39:17.515Z,95514.44
2023-02-19T11:41:43.918Z,95511.31
2023-02-19T11:44:10.300Z,95506.47
2023-02-19T11:46:36.754Z,95515.44
2023-02-19T11:49:03.178Z,95512.63
2023-02-19T11:51:29.579Z,95510.97
2023-02-19T11:53:55.959Z,95505.81
2023-02-19T11:56:22.343Z,95502.00
2023-02-19T11:58:48.757Z,95496.53
2023-02-19T12:01:15.177Z,95492.22
2023-02-19T12:03:41.571Z,95483.13
2023-02-19T12:06:08.021Z,95483.28
2023-02-19T12:08:34.427Z,95482.13
2023-02-19T12:11:00.854Z,95491.25
2023-02-19T12:13:27.233Z,95496.56
2023-02-19T12:18:24.991Z,95487.91
2023-02-19T12:20:51.402Z,95484.63
2023-02-19T12:23:17.902Z,95491.59
2023-02-19T12:25:44.283Z,95492.22
2023-02-19T12:28:10.657Z,95484.13
2023-02-19T12:30:37.121Z,95479.97
2023-02-19T12:33:03.564Z,95470.19
2023-02-19T12:35:29.942Z,95474.84
2023-02-19T12:37:56.336Z,95466.72
2023-02-19T12:40:22.707Z,95473.66
2023-02-19T12:42:51.036Z,95461.75
2023-02-19T12:45:17.544Z,95451.31
2023-02-19T12:47:43.916Z,95457.28
2023-02-19T12:50:10.294Z,95455.94
2023-02-19T12:52:36.701Z,95450.66
2023-02-19T12:55:03.127Z,95443.66
2023-02-19T12:57:29.615Z,95440.84
2023-02-19T12:59:56.053Z,95445.94
2023-02-19T13:02:22.529Z,95447.28
2023-02-19T13:04:48.937Z,95443.81
2023-02-19T13:07:15.354Z,95440.13
2023-02-19T13:09:41.752Z,95437.63
2023-02-19T13:12:08.137Z,95423.38
2023-02-19T13:14:34.527Z,95435.00
2023-02-19T13:17:01.010Z,95433.97
2023-02-19T13:19:27.450Z,95428.59
2023-02-19T13:21:53.851Z,95432.81
2023-02-19T13:24:20.231Z,95429.59
2023-02-19T13:26:46.722Z,95435.22
2023-02-19T13:29:13.111Z,95440.28
2023-02-19T13:31:39.639Z,95448.47
2023-02-19T13:34:06.180Z,95444.69
2023-02-19T13:36:32.628Z,95456.03
2023-02-19T13:38:59.013Z,95438.44
2023-02-19T13:41:25.436Z,95446.06
2023-02-19T13:43:51.827Z,95436.09
2023-02-19T13:46:18.261Z,95427.22
2023-02-19T13:48:44.664Z,95431.50
2023-02-19T13:51:11.355Z,95429.38
2023-02-19T13:53:37.943Z,95436.50
2023-02-19T13:56:04.319Z,95430.78
2023-02-19T13:58:31.998Z,95443.78
2023-02-19T14:00:58.403Z,95438.22
2023-02-19T14:03:24.807Z,95442.38
2023-02-19T14:05:51.187Z,95429.03
2023-02-19T14:08:17.565Z,95433.19
2023-02-19T14:10:43.961Z,95430.25
2023-02-19T14:13:10.416Z,95433.25
2023-02-19T14:15:36.932Z,95418.34
2023-02-19T14:18:03.412Z,95410.22
2023-02-19T14:20:29.801Z,95417.53
2023-02-19T14:22:56.178Z,95428.94
2023-02-19T14:25:22.586Z,95423.44
2023-02-19T14:27:48.970Z,95402.63
2023-02-19T14:30:15.414Z,95414.69
2023-02-19T14:32:43.566Z,95420.66
2023-02-19T14:35:11.602Z,95450.97
2023-02-19T14:37:37.981Z,95440.03
2023-02-19T14:40:04.544Z,95456.25
2023-02-19T14:42:30.969Z,95458.59
2023-02-19T14:44:57.370Z,95460.06
2023-02-19T14:47:23.781Z,95473.31
2023-02-19T14:49:50.177Z,95474.47
2023-02-19T14:52:16.590Z,95481.94
2023-02-19T14:54:43.002Z,95469.84
2023-02-19T14:57:09.505Z,95467.19
2023-02-19T14:59:35.902Z,95463.06
2023-02-19T15:02:02.294Z,95456.56
2023-02-19T15:04:28.709Z,95446.13
2023-02-19T15:06:55.165Z,95440.97
2023-02-19T15:09:21.538Z,95446.09
2023-02-19T15:11:47.933Z,95449.09
2023-02-19T15:14:14.362Z,95448.91
2023-02-19T15:16:40.765Z,95436.94
2023-02-19T15:19:07.173Z,95437.84
2023-02-19T15:21:33.590Z,95438.19
2023-02-19T15:24:00.027Z,95427.06
2023-02-19T15:26:26.406Z,95435.53
2023-02-19T15:28:52.797Z,95434.34
2023-02-19T15:31:19.323Z,95447.38
2023-02-19T15:33:45.776Z,95459.44
2023-02-19T15:36:12.254Z,95456.28
2023-02-19T15:38:38.648Z,95460.81
2023-02-19T15:41:05.229Z,95462.94
2023-02-19T15:43:31.656Z,95464.34
2023-02-19T15:45:58.057Z,95454.69
2023-02-19T15:48:24.427Z,95468.00
2023-02-19T15:50:50.811Z,95459.03
2023-02-19T15:53:17.248Z,95457.53
2023-02-19T15:55:43.668Z,95470.63
2023-02-19T15:58:10.122Z,95471.47
2023-02-19T16:00:36.513Z,95472.13
2023-02-19T16:03:02.928Z,95464.91
2023-02-19T16:05:29.379Z,95457.72
2023-02-19T16:07:55.766Z,95465.13
2023-02-19T16:10:22.386Z,95474.53
2023-02-19T16:12:48.797Z,95483.22
2023-02-19T16:15:15.199Z,95493.69
2023-02-19T16:17:41.586Z,95500.03
2023-02-19T16:20:08.010Z,95500.25
2023-02-19T16:22:34.414Z,95495.66
2023-02-19T16:25:00.845Z,95492.78
2023-02-19T16:27:27.226Z,95495.13
2023-02-19T16:29:53.610Z,95515.03
2023-02-19T16:32:20.069Z,95509.69
2023-02-19T16:34:46.557Z,95518.06
2023-02-19T16:37:12.938Z,95509.53
2023-02-19T16:39:39.314Z,95525.28
2023-02-19T16:42:05.841Z,95518.41
2023-02-19T16:44:32.235Z,95538.91
2023-02-19T16:46:58.645Z,95512.91
2023-02-19T16:49:25.062Z,95515.06
2023-02-19T16:51:51.455Z,95506.91
2023-02-19T16:54:17.856Z,95526.19
2023-02-19T16:56:44.276Z,95529.84
2023-02-19T16:59:10.689Z,95524.34
2023-02-19T17:01:37.138Z,95538.75
2023-02-19T17:04:03.589Z,95542.00
2023-02-19T17:06:30.045Z,95569.22
2023-02-19T17:08:56.504Z,95569.53
2023-02-19T17:13:49.340Z,95584.00
2023-02-19T17:16:15.777Z,95588.69
2023-02-19T17:18:42.192Z,95578.75
2023-02-19T17:21:08.662Z,95579.72
2023-02-19T17:23:35.056Z,95577.06
2023-02-19T17:26:01.500Z,95590.94
2023-02-19T17:28:27.898Z,95601.50
2023-02-19T17:30:54.305Z,95610.13
2023-02-19T17:33:20.681Z,95611.38
2023-02-19T17:35:47.123Z,95609.13
2023-02-19T17:38:13.527Z,95612.91
2023-02-19T17:40:39.903Z,95620.91
2023-02-19T17:43:06.630Z,95626.06
2023-02-19T17:45:33.062Z,95618.72
2023-02-19T17:47:59.482Z,95629.13
2023-02-19T17:50:25.894Z,95626.50
2023-02-19T17:52:52.299Z,95630.81
2023-02-19T17:55:18.726Z,95637.75
2023-02-19T17:57:45.093Z,95636.78
2023-02-19T18:00:11.520Z,95631.75
2023-02-19T18:02:37.926Z,95642.03
2023-02-19T18:05:04.342Z,95640.66
2023-02-19T18:07:30.794Z,95646.47
2023-02-19T18:09:57.187Z,95645.53
2023-02-19T18:12:23.606Z,95645.66
2023-02-19T18:14:49.979Z,95640.38
2023-02-19T18:17:16.397Z,95649.09
2023-02-19T18:19:42.776Z,95650.06
2023-02-19T18:22:09.164Z,95639.81
2023-02-19T18:24:35.589Z,95635.78
2023-02-19T18:27:02.014Z,95634.41
2023-02-19T18:29:28.437Z,95636.19
2023-02-19T18:31:54.949Z,95637.84
2023-02-19T18:34:21.419Z,95632.44
2023-02-19T18:36:47.823Z,95642.22
2023-02-19T18:39:14.301Z,95636.84
2023-02-19T18:41:40.708Z,95644.94
2023-02-19T18:44:07.106Z,95647.72
2023-02-19T18:46:33.513Z,95643.69
2023-02-19T18:48:59.929Z,95637.50
2023-02-19T18:51:26.370Z,95636.69
2023-02-19T18:53:52.785Z,95642.94
2023-02-19T18:56:19.191Z,95653.44
2023-02-19T18:58:45.626Z,95647.78
2023-02-19T19:01:12.215Z,95645.56
2023-02-19T19:03:38.817Z,95643.31
2023-02-19T19:06:05.210Z,95648.22
2023-02-19T19:08:31.630Z,95648.97
2023-02-19T19:10:58.039Z,95636.53
2023-02-19T19:13:24.566Z,95632.22
2023-02-19T19:15:51.010Z,95629.00
2023-02-19T19:18:17.406Z,95614.88
2023-02-19T19:20:43.810Z,95613.94
2023-02-19T19:23:10.310Z,95614.22
2023-02-19T19:25:36.739Z,95617.16
2023-02-19T19:28:03.113Z,95618.91
2023-02-19T19:30:29.597Z,95621.63
2023-02-19T19:32:55.973Z,95619.59
2023-02-19T19:35:22.374Z,95613.91
2023-02-19T19:37:48.785Z,95621.53
2023-02-19T19:40:15.163Z,95615.16
2023-02-19T19:42:43.572Z,95610.44
2023-02-19T19:45:10.814Z,95617.94
2023-02-19T19:47:37.287Z,95627.78
2023-02-19T19:50:03.805Z,95627.31
2023-02-19T19:52:30.208Z,95627.47
2023-02-19T19:54:56.603Z,95629.22
2023-02-19T19:57:23.023Z,95634.06
2023-02-19T19:59:49.424Z,95635.63
2023-02-19T20:02:15.820Z,95629.53
2023-02-19T20:04:42.210Z,95632.09
2023-02-19T20:07:08.609Z,95638.44
2023-02-19T20:09:35.024Z,95637.28
2023-02-19T20:12:01.416Z,95647.22
2023-02-19T20:14:27.898Z,95646.81
2023-02-19T20:16:54.305Z,95659.84
2023-02-19T20:19:20.708Z,95659.16
2023-02-19T20:21:47.098Z,95658.25
2023-02-19T20:24:13.532Z,95675.59
2023-02-19T20:26:39.958Z,95680.75
2023-02-19T20:29:06.394Z,95679.88
2023-02-19T20:31:32.902Z,95685.34
2023-02-19T20:33:59.382Z,95682.47
2023-02-19T20:36:25.795Z,95679.28
2023-02-19T20:38:52.207Z,95681.47
2023-02-19T20:41:18.613Z,95675.09
2023-02-19T20:43:45.011Z,95668.53
2023-02-19T20:46:11.821Z,95655.38
2023-02-19T20:48:38.435Z,95654.97
2023-02-19T20:51:04.924Z,95671.34
2023-02-19T20:53:31.307Z,95671.72
2023-02-19T20:55:57.729Z,95672.97
2023-02-19T20:58:24.135Z,95677.59
2023-02-19T21:00:50.629Z,95686.13
2023-02-19T21:03:17.025Z,95689.41
2023-02-19T21:05:43.427Z,95692.59
2023-02-19T21:08:09.802Z,95700.53
2023-02-19T21:10:36.217Z,95696.34
2023-02-19T21:13:02.619Z,95695.22
2023-02-19T21:15:29.020Z,95701.72
2023-02-19T21:17:55.417Z,95714.25
2023-02-19T21:20:22.151Z,95716.19
2023-02-19T21:22:48.553Z,95717.84
2023-02-19T21:25:14.962Z,95722.66
2023-02-19T21:27:41.378Z,95725.50
2023-02-19T21:30:07.800Z,95716.44
2023-02-19T21:32:34.238Z,95723.03
2023-02-19T21:35:00.653Z,95722.94
2023-02-19T21:37:27.051Z,95721.38
2023-02-19T21:39:53.455Z,95730.38
2023-02-19T21:42:19.851Z,95724.84
2023-02-19T21:44:46.251Z,95722.94
2023-02-19T21:47:12.668Z,95732.03
2023-02-19T21:49:39.118Z,95731.06
2023-02-19T21:52:05.516Z,95724.16
2023-02-19T21:54:31.926Z,95729.13
2023-02-19T21:56:58.310Z,95722.81
2023-02-19T21:59:24.729Z,95722.09
2023-02-19T22:01:51.136Z,95723.94
2023-02-19T22:04:17.532Z,95721.81
2023-02-19T22:06:43.938Z,95729.84
2023-02-19T22:09:10.374Z,95724.44
2023-02-19T22:11:36.804Z,95721.97
2023-02-19T22:14:03.205Z,95727.34
2023-02-19T22:16:29.656Z,95730.25
2023-02-19T22:18:56.100Z,95733.09
2023-02-19T22:21:22.536Z,95729.53
2023-02-19T22:23:48.958Z,95738.47
2023-02-19T22:26:15.396Z,95741.75
2023-02-19T22:28:41.847Z,95733.38
2023-02-19T22:31:08.269Z,95736.16
2023-02-19T22:33:34.639Z,95731.91
2023-02-19T22:36:01.053Z,95732.63
2023-02-19T22:38:27.449Z,95734.22
2023-02-19T22:40:53.849Z,95731.91
2023-02-19T22:43:20.244Z,95734.16
2023-02-19T22:45:46.677Z,95733.81
2023-02-19T22:48:16.887Z,95729.50
2023-02-19T22:50:45.643Z,95726.56
2023-02-19T22:53:12.061Z,95725.16
2023-02-19T22:55:38.495Z,95726.13
2023-02-19T22:58:04.955Z,95711.19
2023-02-19T23:00:31.359Z,95709.44
2023-02-19T23:02:57.878Z,95716.06
2023-02-19T23:05:24.272Z,95713.69
2023-02-19T23:07:50.663Z,95712.97
2023-02-19T23:10:17.063Z,95721.44
2023-02-19T23:12:43.490Z,95723.31
2023-02-19T23:15:09.874Z,95715.78
2023-02-19T23:17:36.301Z,95713.69
2023-02-19T23:20:02.737Z,95714.25
2023-02-19T23:22:29.146Z,95704.28
2023-02-19T23:24:55.718Z,95710.47
2023-02-19T23:27:22.138Z,95716.81
2023-02-19T23:29:48.567Z,95712.00
2023-02-19T23:32:14.960Z,95719.72
2023-02-19T23:34:41.394Z,95723.97
2023-02-19T23:37:07.815Z,95717.78
2023-02-19T23:39:34.219Z,95718.03
2023-02-19T23:42:00.609Z,95708.47
2023-02-19T23:44:27.025Z,95711.34
2023-02-19T23:46:53.408Z,95717.69
2023-02-19T23:49:19.815Z,95709.94
2023-02-19T23:51:46.216Z,95712.19
2023-02-19T23:54:12.636Z,95714.69
2023-02-19T23:56:39.039Z,95718.63
2023-02-19T23:59:05.440Z,95713.75
